createdAt,value
2018-12-18T00:00:03.253Z,6.40
2018-12-18T00:02:31.823Z,6.28
2018-12-18T00:05:02.354Z,6.17
2018-12-18T00:07:30.721Z,6.27
2018-12-18T00:09:59.055Z,5.60
2018-12-18T00:12:27.713Z,6.37
2018-12-18T00:14:56.069Z,5.67
2018-12-18T00:17:24.846Z,5.80
2018-12-18T00:19:53.114Z,5.73
2018-12-18T00:22:21.778Z,4.25
2018-12-18T00:24:50.079Z,5.27
2018-12-18T00:27:18.714Z,4.87
2018-12-18T00:29:47.060Z,4.90
2018-12-18T00:32:15.798Z,4.70
2018-12-18T00:34:44.103Z,4.47
2018-12-18T00:37:12.589Z,3.57
2018-12-18T00:39:40.913Z,4.73
2018-12-18T00:42:09.511Z,3.63
2018-12-18T00:44:37.831Z,3.33
2018-12-18T00:47:06.128Z,3.70
2018-12-18T00:49:34.596Z,3.70
2018-12-18T00:52:02.948Z,3.27
2018-12-18T00:54:31.333Z,3.00
2018-12-18T00:56:59.752Z,3.00
2018-12-18T00:59:28.132Z,2.92
2018-12-18T01:02:00.460Z,2.13
2018-12-18T01:04:28.911Z,3.13
2018-12-18T01:06:57.192Z,2.63
2018-12-18T01:09:25.827Z,2.40
2018-12-18T01:11:54.125Z,2.80
2018-12-18T01:14:22.781Z,2.55
2018-12-18T01:16:51.061Z,2.60
2018-12-18T01:19:19.635Z,2.22
2018-12-18T01:21:47.937Z,2.70
2018-12-18T01:24:16.873Z,2.33
2018-12-18T01:26:45.159Z,3.00
2018-12-18T01:29:14.658Z,2.50
2018-12-18T01:31:44.001Z,2.47
2018-12-18T01:34:12.560Z,2.47
2018-12-18T01:36:40.833Z,2.43
2018-12-18T01:39:09.185Z,2.60
2018-12-18T01:41:37.644Z,2.40
2018-12-18T01:44:05.933Z,2.50
2018-12-18T01:46:34.192Z,3.07
2018-12-18T01:49:02.780Z,2.80
2018-12-18T01:51:31.136Z,2.40
2018-12-18T01:53:59.612Z,2.50
2018-12-18T01:56:27.868Z,2.50
2018-12-18T01:58:56.147Z,2.93
2018-12-18T02:01:24.790Z,2.52
2018-12-18T02:03:53.166Z,2.03
2018-12-18T02:06:21.741Z,2.90
2018-12-18T02:08:50.143Z,2.60
2018-12-18T02:11:19.035Z,2.30
2018-12-18T02:13:47.370Z,2.63
2018-12-18T02:16:16.031Z,2.53
2018-12-18T02:18:44.336Z,2.30
2018-12-18T02:21:12.712Z,2.60
2018-12-18T02:23:40.984Z,3.27
2018-12-18T02:26:09.330Z,2.70
2018-12-18T02:28:37.788Z,2.80
2018-12-18T02:31:06.136Z,3.67
2018-12-18T02:33:34.706Z,2.93
2018-12-18T02:36:02.995Z,2.80
2018-12-18T02:38:31.374Z,2.77
2018-12-18T02:40:59.845Z,2.77
2018-12-18T02:43:28.146Z,3.00
2018-12-18T02:45:56.437Z,2.93
2018-12-18T02:48:24.978Z,3.90
2018-12-18T02:50:53.264Z,3.00
2018-12-18T02:53:21.806Z,2.90
2018-12-18T02:55:50.115Z,3.13
2018-12-18T02:58:18.973Z,2.90
2018-12-18T03:00:47.418Z,2.77
2018-12-18T03:03:15.849Z,2.90
2018-12-18T03:05:44.198Z,2.77
2018-12-18T03:08:12.720Z,2.63
2018-12-18T03:10:41.011Z,2.77
2018-12-18T03:13:09.447Z,3.00
2018-12-18T03:15:37.949Z,3.17
2018-12-18T03:18:06.409Z,3.13
2018-12-18T03:20:34.822Z,2.70
2018-12-18T03:23:03.178Z,2.90
2018-12-18T03:25:32.173Z,2.92
2018-12-18T03:28:00.572Z,3.13
2018-12-18T03:30:29.021Z,3.63
2018-12-18T03:32:57.583Z,3.27
2018-12-18T03:35:26.064Z,3.00
2018-12-18T03:37:54.391Z,3.07
2018-12-18T03:40:23.028Z,2.87
2018-12-18T03:42:51.547Z,2.90
2018-12-18T03:45:20.001Z,3.73
2018-12-18T03:47:48.290Z,2.90
2018-12-18T03:50:16.869Z,3.20
2018-12-18T03:52:45.176Z,3.23
2018-12-18T03:55:14.384Z,3.17
2018-12-18T03:57:42.928Z,3.17
2018-12-18T04:00:11.841Z,3.17
2018-12-18T04:02:40.388Z,2.90
2018-12-18T04:05:08.913Z,2.90
2018-12-18T04:07:37.356Z,3.40
2018-12-18T04:10:05.897Z,3.53
2018-12-18T04:12:34.204Z,3.50
2018-12-18T04:15:02.555Z,3.40
2018-12-18T04:17:31.189Z,3.30
2018-12-18T04:19:59.463Z,3.70
2018-12-18T04:22:28.033Z,3.47
2018-12-18T04:24:56.303Z,3.77
2018-12-18T04:27:24.980Z,3.65
2018-12-18T04:29:53.330Z,3.80
2018-12-18T04:32:21.913Z,3.80
2018-12-18T04:34:50.186Z,3.93
2018-12-18T04:37:18.476Z,3.23
2018-12-18T04:39:46.950Z,3.73
2018-12-18T04:42:15.346Z,3.53
2018-12-18T04:44:43.604Z,3.50
2018-12-18T04:47:12.000Z,3.57
2018-12-18T04:49:40.381Z,3.80
2018-12-18T04:52:08.904Z,4.30
2018-12-18T04:54:37.179Z,3.40
2018-12-18T04:57:05.473Z,3.70
2018-12-18T04:59:34.065Z,3.97
2018-12-18T05:02:02.360Z,3.40
2018-12-18T05:04:30.742Z,3.17
2018-12-18T05:06:59.258Z,3.67
2018-12-18T05:09:27.603Z,3.20
2018-12-18T05:11:55.994Z,3.10
2018-12-18T05:14:24.355Z,3.13
2018-12-18T05:16:52.654Z,2.73
2018-12-18T05:19:21.245Z,3.83
2018-12-18T05:21:49.538Z,3.40
2018-12-18T05:24:18.089Z,3.40
2018-12-18T05:26:46.378Z,3.57
2018-12-18T05:29:15.355Z,3.47
2018-12-18T05:31:43.942Z,3.60
2018-12-18T05:34:12.259Z,3.93
2018-12-18T05:36:40.563Z,3.40
2018-12-18T05:39:09.025Z,3.73
2018-12-18T05:41:37.349Z,4.10
2018-12-18T05:44:05.613Z,3.70
2018-12-18T05:46:34.183Z,3.20
2018-12-18T05:49:02.453Z,3.57
2018-12-18T05:51:31.153Z,3.20
2018-12-18T05:53:59.520Z,3.07
2018-12-18T05:56:27.808Z,3.30
2018-12-18T05:58:56.168Z,2.90
2018-12-18T06:01:24.544Z,3.20
2018-12-18T06:03:53.076Z,2.73
2018-12-18T06:06:21.369Z,3.23
2018-12-18T06:08:49.756Z,3.17
2018-12-18T06:11:18.494Z,2.90
2018-12-18T06:13:47.019Z,2.97
2018-12-18T06:16:15.460Z,3.10
2018-12-18T06:18:43.749Z,2.87
2018-12-18T06:21:12.181Z,2.40
2018-12-18T06:23:40.528Z,2.40
2018-12-18T06:26:09.136Z,2.50
2018-12-18T06:28:37.462Z,2.47
2018-12-18T06:31:06.072Z,2.50
2018-12-18T06:33:34.368Z,2.80
2018-12-18T06:36:02.637Z,2.77
2018-12-18T06:38:31.212Z,3.55
2018-12-18T06:40:59.483Z,3.40
2018-12-18T06:43:28.797Z,3.03
2018-12-18T06:45:57.128Z,3.50
2018-12-18T06:48:25.708Z,3.77
2018-12-18T06:50:54.351Z,3.27
2018-12-18T06:53:22.717Z,3.80
2018-12-18T06:55:51.220Z,5.63
2018-12-18T06:58:19.517Z,4.23
2018-12-18T07:00:47.791Z,4.50
2018-12-18T07:03:16.428Z,4.60
2018-12-18T07:05:44.712Z,4.40
2018-12-18T07:08:13.247Z,3.23
2018-12-18T07:10:41.512Z,3.93
2018-12-18T07:13:09.938Z,9.17
2018-12-18T07:15:38.395Z,7.07
2018-12-18T07:18:06.703Z,6.63
2018-12-18T07:20:35.253Z,10.40
2018-12-18T07:23:03.659Z,11.73
2018-12-18T07:25:32.623Z,16.70
2018-12-18T07:28:00.934Z,16.57
2018-12-18T07:30:29.501Z,12.20
2018-12-18T07:32:57.884Z,8.97
2018-12-18T07:35:26.477Z,8.10
2018-12-18T07:37:54.892Z,6.17
2018-12-18T07:40:23.525Z,5.10
2018-12-18T07:42:51.898Z,4.90
2018-12-18T07:45:20.475Z,7.27
2018-12-18T07:47:48.761Z,6.03
2018-12-18T07:50:17.348Z,3.47
2018-12-18T07:52:45.709Z,4.97
2018-12-18T07:55:15.154Z,11.20
2018-12-18T07:57:43.456Z,4.43
2018-12-18T08:00:11.733Z,8.03
2018-12-18T08:02:40.319Z,5.17
2018-12-18T08:05:08.617Z,13.17
2018-12-18T08:07:37.204Z,8.40
2018-12-18T08:10:06.957Z,5.60
2018-12-18T08:12:35.329Z,3.70
2018-12-18T08:15:03.883Z,5.07
2018-12-18T08:17:32.568Z,4.13
2018-12-18T08:20:00.948Z,3.67
2018-12-18T08:22:29.465Z,3.80
2018-12-18T08:24:57.758Z,5.13
2018-12-18T08:27:26.556Z,4.65
2018-12-18T08:29:54.872Z,4.50
2018-12-18T08:32:23.474Z,4.87
2018-12-18T08:34:51.829Z,5.00
2018-12-18T08:37:20.502Z,2.77
2018-12-18T08:39:48.877Z,3.53
2018-12-18T08:42:17.439Z,2.23
2018-12-18T08:44:45.724Z,2.30
2018-12-18T08:47:15.181Z,2.27
2018-12-18T08:49:43.488Z,2.23
2018-12-18T08:52:11.870Z,3.27
2018-12-18T08:54:40.754Z,2.57
2018-12-18T08:57:09.416Z,3.30
2018-12-18T08:59:37.741Z,2.70
2018-12-18T09:02:06.021Z,2.40
2018-12-18T09:04:34.508Z,2.80
2018-12-18T09:07:02.797Z,2.00
2018-12-18T09:09:31.095Z,1.93
2018-12-18T09:11:59.539Z,2.10
2018-12-18T09:14:27.844Z,2.40
2018-12-18T09:17:02.589Z,2.40
2018-12-18T09:19:30.878Z,1.80
2018-12-18T09:21:59.413Z,2.13
2018-12-18T09:24:27.756Z,2.40
2018-12-18T09:26:56.018Z,1.80
2018-12-18T09:29:24.579Z,1.63
2018-12-18T09:31:53.068Z,1.70
2018-12-18T09:34:21.698Z,1.50
2018-12-18T09:36:50.057Z,1.53
2018-12-18T09:39:21.067Z,1.27
2018-12-18T09:41:51.288Z,1.40
2018-12-18T09:44:19.594Z,1.17
2018-12-18T09:46:47.870Z,1.20
2018-12-18T09:49:16.725Z,1.23
2018-12-18T09:51:45.199Z,1.57
2018-12-18T09:54:13.521Z,3.10
2018-12-18T09:56:47.218Z,1.80
2018-12-18T09:59:15.761Z,0.90
2018-12-18T10:01:44.078Z,1.53
2018-12-18T10:04:12.556Z,1.70
2018-12-18T10:06:40.971Z,1.57
2018-12-18T10:09:09.982Z,1.47
2018-12-18T10:11:38.541Z,1.50
2018-12-18T10:14:06.989Z,1.47
2018-12-18T10:16:35.577Z,1.77
2018-12-18T10:19:03.845Z,1.50
2018-12-18T10:21:32.140Z,1.50
2018-12-18T10:24:00.463Z,2.10
2018-12-18T10:26:28.977Z,1.27
2018-12-18T10:28:57.502Z,1.47
2018-12-18T10:31:26.057Z,1.37
2018-12-18T10:33:54.627Z,1.63
2018-12-18T10:36:23.001Z,1.73
2018-12-18T10:38:51.573Z,1.60
2018-12-18T10:41:20.225Z,1.40
2018-12-18T10:43:48.657Z,1.50
2018-12-18T10:46:17.027Z,1.80
2018-12-18T10:48:45.588Z,1.97
2018-12-18T10:51:13.876Z,3.00
2018-12-18T10:53:42.248Z,2.53
2018-12-18T10:56:10.780Z,2.37
2018-12-18T10:58:39.070Z,3.00
2018-12-18T11:01:13.675Z,3.77
2018-12-18T11:03:42.004Z,2.73
2018-12-18T11:06:10.700Z,2.37
2018-12-18T11:08:39.058Z,2.53
2018-12-18T11:11:07.727Z,2.30
2018-12-18T11:13:36.008Z,2.30
2018-12-18T11:16:06.560Z,1.70
2018-12-18T11:18:34.889Z,2.03
2018-12-18T11:21:03.178Z,1.63
2018-12-18T11:23:32.168Z,2.07
2018-12-18T11:26:00.681Z,2.60
2018-12-18T11:28:28.962Z,2.27
2018-12-18T11:30:57.246Z,1.90
2018-12-18T11:33:25.729Z,2.90
2018-12-18T11:35:54.127Z,3.30
2018-12-18T11:38:22.678Z,3.15
2018-12-18T11:40:51.038Z,2.80
2018-12-18T11:43:19.920Z,2.67
2018-12-18T11:45:48.326Z,8.03
2018-12-18T11:48:16.886Z,3.57
2018-12-18T11:50:45.234Z,4.07
2018-12-18T11:53:13.636Z,3.77
2018-12-18T11:55:42.017Z,3.80
2018-12-18T11:58:10.365Z,3.37
2018-12-18T12:00:39.111Z,3.20
2018-12-18T12:03:07.709Z,2.73
2018-12-18T12:05:36.000Z,3.47
2018-12-18T12:08:04.608Z,3.80
2018-12-18T12:10:32.970Z,3.40
2018-12-18T12:13:01.334Z,4.13
2018-12-18T12:15:29.849Z,3.90
2018-12-18T12:17:58.253Z,4.40
2018-12-18T12:20:26.921Z,4.30
2018-12-18T12:22:55.291Z,4.30
2018-12-18T12:25:23.931Z,4.27
2018-12-18T12:27:57.792Z,4.57
2018-12-18T12:30:26.105Z,4.55
2018-12-18T12:32:54.642Z,4.37
2018-12-18T12:35:22.935Z,4.37
2018-12-18T12:37:51.269Z,4.17
2018-12-18T12:40:19.818Z,4.50
2018-12-18T12:42:48.329Z,4.03
2018-12-18T12:45:17.028Z,4.43
2018-12-18T12:47:47.093Z,4.13
2018-12-18T12:50:15.950Z,3.70
2018-12-18T12:52:44.227Z,3.70
2018-12-18T12:55:12.741Z,3.40
2018-12-18T12:57:41.178Z,3.70
2018-12-18T13:00:09.755Z,3.43
2018-12-18T13:02:38.081Z,3.50
2018-12-18T13:05:06.365Z,3.40
2018-12-18T13:07:34.823Z,3.53
2018-12-18T13:10:03.238Z,3.87
2018-12-18T13:12:31.949Z,3.77
2018-12-18T13:15:00.214Z,3.67
2018-12-18T13:17:28.862Z,3.12
2018-12-18T13:19:57.190Z,3.20
2018-12-18T13:22:25.974Z,3.50
2018-12-18T13:24:54.275Z,2.90
2018-12-18T13:27:22.929Z,3.00
2018-12-18T13:29:51.308Z,2.10
2018-12-18T13:32:19.988Z,2.60
2018-12-18T13:34:48.748Z,1.97
2018-12-18T13:37:17.060Z,2.43
2018-12-18T13:39:45.444Z,1.83
2018-12-18T13:42:13.830Z,2.10
2018-12-18T13:44:41.884Z,2.50
2018-12-18T13:47:09.930Z,2.20
2018-12-18T13:49:38.157Z,2.10
2018-12-18T13:52:06.470Z,2.27
2018-12-18T13:54:35.017Z,2.30
2018-12-18T13:57:03.306Z,2.07
2018-12-18T13:59:31.853Z,2.55
2018-12-18T14:02:00.242Z,2.30
2018-12-18T14:04:29.023Z,3.05
2018-12-18T14:06:57.288Z,2.70
2018-12-18T14:09:25.924Z,2.60
2018-12-18T14:11:54.241Z,2.63
2018-12-18T14:14:22.810Z,2.23
2018-12-18T14:16:51.188Z,2.30
2018-12-18T14:19:19.535Z,2.80
2018-12-18T14:21:48.003Z,3.03
2018-12-18T14:24:16.377Z,2.60
2018-12-18T14:26:45.003Z,3.53
2018-12-18T14:29:13.080Z,6.00
2018-12-18T14:31:41.169Z,2.67
2018-12-18T14:34:09.587Z,3.17
2018-12-18T14:36:38.342Z,2.87
2018-12-18T14:39:06.792Z,3.00
2018-12-18T14:41:34.830Z,3.60
2018-12-18T14:44:03.140Z,2.73
2018-12-18T14:46:31.483Z,3.07
2018-12-18T14:48:59.807Z,3.73
2018-12-18T14:51:28.079Z,6.33
2018-12-18T14:53:56.450Z,6.37
2018-12-18T14:56:24.773Z,12.00
2018-12-18T14:58:53.085Z,7.93
2018-12-18T15:01:21.159Z,10.30
2018-12-18T15:03:49.501Z,11.67
2018-12-18T15:06:18.003Z,8.67
2018-12-18T15:08:46.329Z,57.30
2018-12-18T15:11:15.309Z,9.77
2018-12-18T15:13:43.392Z,4.17
2018-12-18T15:16:11.535Z,4.60
2018-12-18T15:18:39.864Z,18.07
2018-12-18T15:21:07.896Z,7.10
2018-12-18T15:23:36.241Z,4.90
2018-12-18T15:26:04.413Z,4.77
2018-12-18T15:28:32.789Z,5.43
2018-12-18T15:31:01.173Z,5.40
2018-12-18T15:33:29.393Z,5.60
2018-12-18T15:35:57.730Z,6.10
2018-12-18T15:38:25.833Z,6.23
2018-12-18T15:40:58.480Z,6.20
2018-12-18T15:43:28.774Z,5.75
2018-12-18T15:45:56.974Z,6.60
2018-12-18T15:48:25.285Z,5.57
2018-12-18T15:50:53.312Z,6.00
2018-12-18T15:53:21.393Z,5.37
2018-12-18T15:55:49.700Z,5.27
2018-12-18T15:58:17.748Z,4.73
2018-12-18T16:00:45.806Z,4.17
2018-12-18T16:03:14.083Z,6.50
2018-12-18T16:05:42.175Z,15.87
2018-12-18T16:08:10.467Z,12.10
2018-12-18T16:10:38.627Z,8.27
2018-12-18T16:13:06.724Z,8.53
2018-12-18T16:15:35.021Z,10.60
2018-12-18T16:18:03.330Z,6.20
2018-12-18T16:20:31.424Z,6.13
2018-12-18T16:22:59.466Z,4.73
2018-12-18T16:25:27.694Z,4.90
2018-12-18T16:27:55.868Z,4.97
2018-12-18T16:30:24.185Z,5.53
2018-12-18T16:32:52.220Z,7.67
2018-12-18T16:35:20.286Z,7.07
2018-12-18T16:37:48.322Z,7.23
2018-12-18T16:40:16.376Z,6.43
2018-12-18T16:42:44.551Z,5.43
2018-12-18T16:45:12.713Z,4.77
2018-12-18T16:47:40.786Z,5.33
2018-12-18T16:50:08.966Z,5.33
2018-12-18T16:52:37.259Z,7.07
2018-12-18T16:55:05.723Z,6.27
2018-12-18T16:57:33.740Z,8.80
2018-12-18T17:00:01.844Z,10.07
2018-12-18T17:02:30.920Z,8.33
2018-12-18T17:04:59.379Z,6.50
2018-12-18T17:07:29.685Z,7.13
2018-12-18T17:09:57.790Z,8.20
2018-12-18T17:12:25.899Z,8.10
2018-12-18T17:14:54.271Z,10.50
2018-12-18T17:17:22.289Z,8.97
2018-12-18T17:19:50.389Z,9.50
2018-12-18T17:22:18.412Z,10.27
2018-12-18T17:24:46.580Z,10.63
2018-12-18T17:27:15.516Z,12.80
2018-12-18T17:29:43.597Z,12.93
2018-12-18T17:32:11.798Z,11.87
2018-12-18T17:34:39.886Z,12.90
2018-12-18T17:37:08.011Z,12.93
2018-12-18T17:39:36.152Z,14.10
2018-12-18T17:42:04.251Z,14.83
2018-12-18T17:44:32.403Z,14.80
2018-12-18T17:47:00.789Z,13.73
2018-12-18T17:49:29.153Z,14.07
2018-12-18T17:51:57.513Z,14.20
2018-12-18T17:54:25.609Z,14.63
2018-12-18T17:56:53.697Z,14.73
2018-12-18T17:59:21.855Z,15.77
2018-12-18T18:01:49.979Z,17.00
2018-12-18T18:04:18.232Z,16.10
2018-12-18T18:06:46.287Z,15.10
2018-12-18T18:09:15.083Z,15.73
2018-12-18T18:11:43.131Z,14.60
2018-12-18T18:14:11.217Z,14.07
2018-12-18T18:16:39.269Z,14.57
2018-12-18T18:19:07.404Z,13.83
2018-12-18T18:21:35.621Z,13.27
2018-12-18T18:24:03.818Z,15.47
2018-12-18T18:26:32.291Z,15.00
2018-12-18T18:29:00.648Z,14.77
2018-12-18T18:31:28.795Z,15.63
2018-12-18T18:33:57.121Z,15.63
2018-12-18T18:36:25.232Z,16.83
2018-12-18T18:38:53.273Z,16.87
2018-12-18T18:41:21.306Z,17.50
2018-12-18T18:43:49.353Z,16.20
2018-12-18T18:46:17.604Z,16.30
2018-12-18T18:48:46.212Z,17.23
2018-12-18T18:51:14.610Z,16.57
2018-12-18T18:53:43.200Z,16.17
2018-12-18T18:56:11.568Z,16.03
2018-12-18T18:58:39.874Z,15.43
2018-12-18T19:01:08.025Z,16.17
2018-12-18T19:03:36.132Z,16.17
2018-12-18T19:06:04.201Z,17.33
2018-12-18T19:08:32.563Z,15.67
2018-12-18T19:11:00.672Z,15.67
2018-12-18T19:13:29.211Z,14.43
2018-12-18T19:15:57.575Z,14.30
2018-12-18T19:18:25.902Z,14.87
2018-12-18T19:20:54.513Z,14.03
2018-12-18T19:23:23.128Z,13.97
2018-12-18T19:25:51.499Z,13.17
2018-12-18T19:28:19.812Z,13.70
2018-12-18T19:30:48.301Z,14.70
2018-12-18T19:33:16.647Z,14.10
2018-12-18T19:35:45.241Z,14.17
2018-12-18T19:38:13.557Z,13.10
2018-12-18T19:40:41.854Z,16.07
2018-12-18T19:43:10.332Z,15.83
2018-12-18T19:45:38.598Z,13.13
2018-12-18T19:48:06.972Z,14.00
2018-12-18T19:50:35.406Z,14.87
2018-12-18T19:53:03.729Z,14.13
2018-12-18T19:55:32.589Z,13.30
2018-12-18T19:58:00.909Z,13.37
2018-12-18T20:00:29.513Z,12.43
2018-12-18T20:02:57.784Z,12.37
2018-12-18T20:05:26.408Z,12.70
2018-12-18T20:07:54.695Z,13.60
2018-12-18T20:10:22.989Z,12.43
2018-12-18T20:12:51.380Z,12.83
2018-12-18T20:15:19.677Z,12.60
2018-12-18T20:17:47.982Z,14.87
2018-12-18T20:20:16.689Z,13.03
2018-12-18T20:22:49.433Z,14.57
2018-12-18T20:25:17.828Z,14.67
2018-12-18T20:27:46.185Z,12.63
2018-12-18T20:30:15.235Z,12.90
2018-12-18T20:32:43.303Z,12.63
2018-12-18T20:35:11.373Z,11.93
2018-12-18T20:37:39.898Z,13.43
2018-12-18T20:40:08.959Z,12.43
2018-12-18T20:42:37.097Z,12.33
2018-12-18T20:45:05.567Z,13.30
2018-12-18T20:47:33.692Z,13.00
2018-12-18T20:50:02.356Z,14.73
2018-12-18T20:52:30.730Z,14.13
2018-12-18T20:54:59.059Z,13.27
2018-12-18T20:57:27.388Z,13.70
2018-12-18T20:59:55.845Z,14.37
2018-12-18T21:02:25.084Z,13.32
2018-12-18T21:04:53.625Z,13.00
2018-12-18T21:07:21.998Z,12.13
2018-12-18T21:09:50.667Z,12.87
2018-12-18T21:12:18.741Z,12.80
2018-12-18T21:14:47.069Z,12.53
2018-12-18T21:17:16.721Z,12.10
2018-12-18T21:19:45.023Z,12.40
2018-12-18T21:22:13.547Z,12.07
2018-12-18T21:24:41.914Z,13.13
2018-12-18T21:27:10.454Z,12.67
2018-12-18T21:29:38.807Z,11.93
2018-12-18T21:32:07.186Z,13.43
2018-12-18T21:34:35.517Z,13.03
2018-12-18T21:37:03.975Z,12.90
2018-12-18T21:39:32.663Z,12.37
2018-12-18T21:42:01.057Z,13.17
2018-12-18T21:44:29.647Z,12.78
2018-12-18T21:46:57.991Z,13.40
2018-12-18T21:49:27.105Z,12.58
2018-12-18T21:51:55.915Z,13.00
2018-12-18T21:54:24.012Z,13.93
2018-12-18T21:56:52.488Z,14.00
2018-12-18T21:59:20.875Z,14.30
2018-12-18T22:01:49.190Z,21.37
2018-12-18T22:04:17.650Z,19.70
2018-12-18T22:06:46.399Z,17.53
2018-12-18T22:09:15.084Z,14.33
2018-12-18T22:11:43.525Z,14.60
2018-12-18T22:14:11.863Z,14.93
2018-12-18T22:16:40.282Z,15.37
2018-12-18T22:19:08.567Z,14.87
2018-12-18T22:21:36.913Z,14.23
2018-12-18T22:24:05.298Z,13.90
2018-12-18T22:26:33.839Z,14.60
2018-12-18T22:29:02.222Z,14.53
2018-12-18T22:31:30.734Z,15.03
2018-12-18T22:33:59.065Z,15.70
2018-12-18T22:36:27.133Z,25.17
2018-12-18T22:38:55.469Z,15.23
2018-12-18T22:41:23.692Z,14.30
2018-12-18T22:43:51.982Z,13.20
2018-12-18T22:46:20.368Z,14.30
2018-12-18T22:48:48.418Z,18.17
2018-12-18T22:51:16.786Z,14.53
2018-12-18T22:53:45.114Z,14.30
2018-12-18T22:56:13.528Z,15.27
2018-12-18T22:58:41.893Z,14.37
2018-12-18T23:01:17.656Z,15.97
2018-12-18T23:03:46.329Z,14.07
2018-12-18T23:06:14.463Z,14.50
2018-12-18T23:08:43.199Z,16.33
2018-12-18T23:11:11.593Z,15.13
2018-12-18T23:13:39.973Z,15.33
2018-12-18T23:16:08.347Z,15.53
2018-12-18T23:18:36.501Z,14.53
2018-12-18T23:21:04.915Z,15.73
2018-12-18T23:23:34.124Z,16.30
2018-12-18T23:26:02.569Z,16.93
2018-12-18T23:28:31.082Z,17.53
2018-12-18T23:30:59.679Z,17.47
2018-12-18T23:33:28.099Z,18.07
2018-12-18T23:35:56.811Z,18.30
2018-12-18T23:38:25.386Z,18.07
2018-12-18T23:40:54.009Z,17.50
2018-12-18T23:43:22.357Z,16.37
2018-12-18T23:45:50.645Z,17.30
2018-12-18T23:48:19.050Z,17.03
2018-12-18T23:50:47.412Z,16.20
2018-12-18T23:53:15.750Z,17.03
2018-12-18T23:55:44.070Z,15.90
2018-12-18T23:58:12.393Z,16.40
